createdAt,value
2018-08-04T00:01:11.117Z,59.32
2018-08-04T00:03:40.784Z,58.75
2018-08-04T00:06:10.423Z,58.32
2018-08-04T00:08:40.106Z,58.48
2018-08-04T00:11:09.752Z,58.50
2018-08-04T00:13:39.436Z,58.74
2018-08-04T00:16:09.187Z,58.94
2018-08-04T00:18:38.860Z,58.94
2018-08-04T00:21:08.591Z,58.87
2018-08-04T00:23:38.304Z,59.13
2018-08-04T00:26:07.977Z,59.24
2018-08-04T00:28:37.642Z,59.90
2018-08-04T00:31:07.351Z,59.81
2018-08-04T00:33:37.010Z,60.38
2018-08-04T00:36:06.684Z,59.70
2018-08-04T00:38:36.429Z,59.65
2018-08-04T00:41:06.316Z,60.31
2018-08-04T00:43:35.961Z,59.41
2018-08-04T00:46:06.244Z,59.99
2018-08-04T00:48:35.902Z,59.31
2018-08-04T00:51:05.566Z,59.71
2018-08-04T00:53:35.291Z,59.65
2018-08-04T00:56:04.976Z,60.56
2018-08-04T00:58:34.655Z,59.82
2018-08-04T01:01:04.372Z,60.31
2018-08-04T01:03:34.031Z,60.40
2018-08-04T01:06:03.773Z,59.48
2018-08-04T01:08:33.532Z,61.41
2018-08-04T01:11:03.232Z,60.10
2018-08-04T01:13:32.881Z,59.65
2018-08-04T01:16:02.541Z,60.38
2018-08-04T01:18:32.421Z,60.61
2018-08-04T01:21:02.127Z,60.23
2018-08-04T01:23:31.804Z,59.74
2018-08-04T01:26:01.537Z,60.76
2018-08-04T01:28:31.217Z,60.52
2018-08-04T01:31:00.857Z,59.97
2018-08-04T01:33:30.595Z,60.22
2018-08-04T01:36:00.233Z,60.10
2018-08-04T01:38:29.875Z,60.64
2018-08-04T01:40:59.653Z,60.25
2018-08-04T01:43:29.285Z,60.60
2018-08-04T01:45:58.930Z,60.20
2018-08-04T01:48:28.618Z,60.33
2018-08-04T01:50:58.275Z,60.76
2018-08-04T01:53:27.933Z,60.35
2018-08-04T01:55:57.672Z,60.02
2018-08-04T01:58:27.312Z,60.50
2018-08-04T02:00:56.960Z,59.95
2018-08-04T02:03:26.672Z,59.72
2018-08-04T02:05:56.312Z,60.14
2018-08-04T02:08:26.603Z,60.42
2018-08-04T02:10:56.280Z,60.66
2018-08-04T02:13:25.947Z,60.45
2018-08-04T02:16:02.217Z,60.58
2018-08-04T02:18:31.859Z,60.66
2018-08-04T02:21:01.534Z,61.38
2018-08-04T02:23:31.214Z,61.43
2018-08-04T02:26:00.904Z,61.14
2018-08-04T02:28:30.580Z,60.00
2018-08-04T02:31:00.249Z,59.41
2018-08-04T02:33:29.907Z,59.93
2018-08-04T02:35:59.568Z,59.82
2018-08-04T02:38:29.261Z,59.46
2018-08-04T02:40:58.904Z,59.07
2018-08-04T02:43:28.564Z,59.24
2018-08-04T02:45:58.228Z,58.83
2018-08-04T02:48:27.867Z,58.29
2018-08-04T02:50:57.592Z,59.08
2018-08-04T02:53:27.225Z,58.51
2018-08-04T02:55:56.885Z,59.10
2018-08-04T02:58:26.581Z,57.96
2018-08-04T03:00:56.239Z,58.13
2018-08-04T03:03:25.912Z,59.09
2018-08-04T03:05:55.617Z,58.76
2018-08-04T03:08:25.281Z,59.13
2018-08-04T03:10:54.965Z,59.01
2018-08-04T03:13:24.696Z,58.49
2018-08-04T03:15:54.414Z,59.17
2018-08-04T03:18:24.087Z,58.51
2018-08-04T03:20:53.786Z,58.43
2018-08-04T03:23:23.510Z,58.53
2018-08-04T03:25:53.175Z,58.70
2018-08-04T03:28:22.899Z,58.71
2018-08-04T03:30:52.847Z,58.80
2018-08-04T03:33:22.475Z,59.07
2018-08-04T03:35:52.177Z,58.98
2018-08-04T03:38:21.878Z,60.09
2018-08-04T03:40:51.527Z,59.78
2018-08-04T03:43:21.245Z,58.99
2018-08-04T03:45:50.903Z,59.93
2018-08-04T03:48:20.552Z,60.20
2018-08-04T03:50:50.245Z,59.68
2018-08-04T03:53:19.886Z,59.79
2018-08-04T03:55:49.529Z,59.96
2018-08-04T03:58:19.198Z,59.52
2018-08-04T04:00:48.829Z,60.67
2018-08-04T04:03:18.465Z,59.80
2018-08-04T04:05:48.137Z,60.37
2018-08-04T04:08:17.773Z,59.91
2018-08-04T04:10:47.466Z,60.55
2018-08-04T04:13:17.097Z,60.75
2018-08-04T04:15:46.763Z,60.80
2018-08-04T04:18:16.436Z,61.73
2018-08-04T04:20:46.101Z,61.47
2018-08-04T04:23:15.738Z,61.94
2018-08-04T04:25:45.482Z,62.53
2018-08-04T04:28:15.119Z,61.25
2018-08-04T04:30:44.760Z,61.34
2018-08-04T04:33:14.656Z,61.91
2018-08-04T04:35:44.332Z,62.13
2018-08-04T04:38:13.978Z,62.63
2018-08-04T04:40:43.699Z,62.62
2018-08-04T04:43:13.355Z,62.24
2018-08-04T04:45:42.998Z,62.59
2018-08-04T04:48:12.710Z,62.83
2018-08-04T04:50:42.389Z,63.10
2018-08-04T04:53:12.973Z,62.66
2018-08-04T04:55:42.655Z,62.64
2018-08-04T04:58:12.324Z,62.81
2018-08-04T05:00:41.989Z,62.46
2018-08-04T05:03:11.675Z,62.66
2018-08-04T05:05:47.740Z,62.61
2018-08-04T05:08:17.404Z,62.27
2018-08-04T05:10:47.100Z,62.24
2018-08-04T05:13:16.833Z,62.73
2018-08-04T05:15:46.484Z,63.46
2018-08-04T05:18:16.167Z,62.46
2018-08-04T05:20:45.846Z,63.67
2018-08-04T05:23:15.581Z,63.01
2018-08-04T05:25:45.234Z,62.11
2018-08-04T05:28:14.899Z,62.63
2018-08-04T05:30:44.595Z,62.62
2018-08-04T05:33:14.248Z,62.92
2018-08-04T05:35:43.928Z,61.86
2018-08-04T05:38:13.668Z,61.33
2018-08-04T05:40:43.328Z,61.16
2018-08-04T05:43:12.983Z,61.02
2018-08-04T05:45:42.992Z,61.18
2018-08-04T05:48:12.667Z,60.63
2018-08-04T05:50:42.400Z,59.78
2018-08-04T05:53:12.097Z,59.72
2018-08-04T05:55:41.758Z,60.10
2018-08-04T05:58:11.448Z,58.99
2018-08-04T06:00:41.106Z,59.98
2018-08-04T06:03:10.845Z,60.12
2018-08-04T06:05:40.536Z,60.33
2018-08-04T06:08:10.211Z,59.07
2018-08-04T06:10:39.895Z,59.98
2018-08-04T06:13:09.604Z,60.11
2018-08-04T06:15:39.367Z,59.32
2018-08-04T06:18:09.339Z,58.57
2018-08-04T06:20:38.984Z,59.19
2018-08-04T06:23:08.643Z,59.37
2018-08-04T06:25:38.500Z,59.73
2018-08-04T06:28:08.194Z,58.43
2018-08-04T06:30:37.901Z,57.59
2018-08-04T06:33:07.613Z,57.89
2018-08-04T06:35:37.265Z,58.22
2018-08-04T06:38:06.928Z,58.67
2018-08-04T06:40:36.657Z,58.01
2018-08-04T06:43:06.347Z,58.78
2018-08-04T06:45:36.065Z,58.92
2018-08-04T06:48:05.955Z,58.01
2018-08-04T06:50:35.610Z,57.71
2018-08-04T06:53:05.384Z,58.61
2018-08-04T06:55:35.048Z,58.55
2018-08-04T06:58:04.748Z,58.76
2018-08-04T07:00:35.543Z,59.12
2018-08-04T07:03:05.292Z,60.75
2018-08-04T07:05:35.078Z,60.43
2018-08-04T07:08:04.755Z,60.73
2018-08-04T07:10:34.521Z,62.17
2018-08-04T07:13:04.267Z,61.35
2018-08-04T07:15:33.936Z,60.14
2018-08-04T07:18:03.712Z,59.85
2018-08-04T07:20:33.384Z,60.92
2018-08-04T07:23:03.107Z,60.43
2018-08-04T07:25:32.786Z,59.60
2018-08-04T07:28:02.791Z,59.92
2018-08-04T07:30:32.503Z,59.30
2018-08-04T07:33:02.456Z,59.28
2018-08-04T07:35:32.216Z,58.61
2018-08-04T07:38:01.916Z,59.52
2018-08-04T07:40:31.660Z,59.11
2018-08-04T07:43:01.352Z,58.22
2018-08-04T07:45:31.036Z,60.33
2018-08-04T07:48:00.766Z,60.65
2018-08-04T07:50:30.452Z,58.68
2018-08-04T07:53:00.192Z,59.66
2018-08-04T07:55:29.892Z,60.01
2018-08-04T07:57:59.620Z,58.61
2018-08-04T08:00:29.303Z,58.42
2018-08-04T08:02:58.968Z,57.54
2018-08-04T08:05:28.603Z,57.41
2018-08-04T08:07:58.325Z,56.92
2018-08-04T08:10:28.186Z,58.43
2018-08-04T08:12:57.699Z,56.59
2018-08-04T08:15:27.458Z,56.77
2018-08-04T08:17:57.171Z,56.09
2018-08-04T08:20:26.886Z,56.32
2018-08-04T08:22:56.619Z,56.46
2018-08-04T08:25:26.338Z,55.57
2018-08-04T08:27:56.000Z,56.11
2018-08-04T08:30:25.738Z,54.84
2018-08-04T08:32:55.387Z,54.62
2018-08-04T08:35:25.107Z,55.33
2018-08-04T08:37:54.779Z,54.25
2018-08-04T08:40:24.462Z,54.33
2018-08-04T08:42:54.254Z,53.55
2018-08-04T08:45:24.328Z,53.58
2018-08-04T08:47:54.000Z,52.70
2018-08-04T08:50:24.116Z,51.91
2018-08-04T08:52:53.847Z,50.78
2018-08-04T08:55:23.560Z,50.92
2018-08-04T08:57:53.288Z,51.82
2018-08-04T09:00:22.995Z,51.96
2018-08-04T09:02:52.661Z,52.20
2018-08-04T09:05:22.365Z,50.56
2018-08-04T09:07:52.024Z,51.12
2018-08-04T09:10:21.714Z,50.82
2018-08-04T09:12:51.405Z,50.55
2018-08-04T09:15:21.180Z,50.77
2018-08-04T09:17:50.852Z,51.67
2018-08-04T09:20:20.551Z,51.05
2018-08-04T09:22:50.361Z,49.96
2018-08-04T09:25:20.058Z,49.63
2018-08-04T09:27:49.784Z,49.18
2018-08-04T09:30:19.472Z,48.44
2018-08-04T09:32:49.217Z,49.52
2018-08-04T09:35:18.901Z,49.55
2018-08-04T09:37:48.635Z,48.86
2018-08-04T09:40:18.332Z,49.64
2018-08-04T09:42:48.077Z,49.62
2018-08-04T09:45:17.768Z,48.35
2018-08-04T09:47:48.814Z,48.17
2018-08-04T09:50:18.499Z,47.66
2018-08-04T09:52:48.236Z,47.69
2018-08-04T09:55:17.964Z,47.02
2018-08-04T09:57:47.653Z,47.62
2018-08-04T10:00:22.500Z,46.06
2018-08-04T10:02:52.211Z,46.30
2018-08-04T10:05:21.953Z,46.81
2018-08-04T10:07:51.755Z,46.52
2018-08-04T10:10:21.652Z,45.60
2018-08-04T10:12:51.353Z,45.09
2018-08-04T10:15:21.125Z,44.45
2018-08-04T10:17:50.830Z,44.69
2018-08-04T10:20:20.586Z,45.15
2018-08-04T10:22:50.653Z,44.17
2018-08-04T10:25:20.434Z,43.63
2018-08-04T10:33:34.824Z,42.74
2018-08-04T10:36:04.529Z,43.55
2018-08-04T10:38:34.224Z,43.63
2018-08-04T10:41:03.948Z,42.80
2018-08-04T10:43:33.604Z,43.17
2018-08-04T10:46:03.308Z,42.78
2018-08-04T10:48:32.988Z,42.43
2018-08-04T10:51:02.663Z,41.90
2018-08-04T10:53:32.398Z,41.13
2018-08-04T10:56:02.092Z,41.50
2018-08-04T10:58:31.985Z,41.28
2018-08-04T11:01:01.704Z,40.77
2018-08-04T11:03:31.364Z,39.74
2018-08-04T11:06:01.180Z,39.56
2018-08-04T11:08:30.853Z,39.67
2018-08-04T11:11:00.521Z,39.26
2018-08-04T11:13:30.233Z,39.82
2018-08-04T11:15:59.900Z,37.93
2018-08-04T11:18:29.599Z,38.48
2018-08-04T11:20:59.375Z,39.12
2018-08-04T11:23:29.156Z,38.59
2018-08-04T11:25:59.288Z,37.70
2018-08-04T11:28:28.973Z,37.35
2018-08-04T11:30:58.784Z,37.19
2018-08-04T11:33:28.452Z,37.06
2018-08-04T11:35:58.207Z,36.48
2018-08-04T11:38:28.289Z,37.35
2018-08-04T11:40:57.984Z,36.77
2018-08-04T11:43:27.742Z,36.75
2018-08-04T11:45:57.942Z,35.65
2018-08-04T11:48:27.689Z,35.18
2018-08-04T11:50:57.391Z,35.64
2018-08-04T11:53:27.367Z,34.98
2018-08-04T11:55:57.111Z,35.48
2018-08-04T11:58:26.941Z,34.47
2018-08-04T12:00:56.528Z,34.13
2018-08-04T12:03:26.238Z,33.22
2018-08-04T12:05:55.957Z,32.68
2018-08-04T12:08:25.707Z,32.50
2018-08-04T12:10:55.432Z,34.93
2018-08-04T12:13:25.177Z,33.53
2018-08-04T12:15:54.900Z,33.26
2018-08-04T12:18:24.592Z,32.72
2018-08-04T12:20:54.572Z,33.03
2018-08-04T12:23:24.260Z,33.68
2018-08-04T12:25:53.943Z,32.75
2018-08-04T12:28:23.679Z,32.42
2018-08-04T12:30:53.388Z,33.45
2018-08-04T12:33:23.155Z,32.27
2018-08-04T12:35:52.844Z,32.69
2018-08-04T12:38:22.531Z,32.45
2018-08-04T12:40:52.220Z,32.42
2018-08-04T12:43:21.895Z,32.54
2018-08-04T12:45:51.559Z,31.77
2018-08-04T12:48:21.386Z,31.85
2018-08-04T12:50:51.141Z,32.68
2018-08-04T12:53:20.861Z,32.51
2018-08-04T12:55:50.523Z,32.29
2018-08-04T12:58:20.287Z,31.63
2018-08-04T13:00:50.095Z,30.63
2018-08-04T13:03:20.181Z,30.62
2018-08-04T13:05:49.978Z,30.49
2018-08-04T13:08:19.671Z,29.81
2018-08-04T13:10:50.920Z,30.05
2018-08-04T13:13:20.631Z,29.80
2018-08-04T13:15:50.369Z,30.24
2018-08-04T13:18:20.078Z,31.38
2018-08-04T13:20:49.816Z,30.68
2018-08-04T13:23:19.484Z,29.80
2018-08-04T13:25:49.206Z,30.82
2018-08-04T13:28:18.947Z,30.95
2018-08-04T13:30:48.712Z,29.31
2018-08-04T13:33:18.406Z,29.71
2018-08-04T13:35:48.205Z,30.23
2018-08-04T13:38:17.952Z,29.21
2018-08-04T13:40:48.229Z,29.03
2018-08-04T13:43:18.012Z,29.08
2018-08-04T13:45:47.736Z,29.02
2018-08-04T13:48:17.504Z,28.53
2018-08-04T13:50:47.223Z,27.89
2018-08-04T13:53:16.976Z,27.97
2018-08-04T13:55:46.761Z,29.19
2018-08-04T13:58:16.578Z,29.46
2018-08-04T14:00:46.356Z,27.58
2018-08-04T14:03:16.072Z,27.26
2018-08-04T14:05:45.817Z,27.76
2018-08-04T14:08:15.954Z,26.76
2018-08-04T14:10:45.680Z,26.67
2018-08-04T14:13:15.452Z,28.37
2018-08-04T14:15:45.156Z,26.77
2018-08-04T14:18:14.840Z,26.88
2018-08-04T14:20:44.959Z,28.06
2018-08-04T14:23:14.661Z,28.78
2018-08-04T14:25:44.432Z,28.81
2018-08-04T14:28:14.179Z,28.18
2018-08-04T14:30:43.905Z,28.17
2018-08-04T14:33:13.655Z,28.15
2018-08-04T14:35:43.383Z,26.63
2018-08-04T14:38:13.523Z,27.29
2018-08-04T14:40:43.627Z,28.37
2018-08-04T14:43:13.372Z,28.43
2018-08-04T14:45:43.100Z,26.89
2018-08-04T14:48:12.792Z,28.42
2018-08-04T14:50:42.537Z,28.07
2018-08-04T14:53:12.887Z,29.11
2018-08-04T14:55:42.652Z,29.37
2018-08-04T14:58:12.332Z,29.56
2018-08-04T15:00:42.089Z,30.04
2018-08-04T15:03:11.778Z,30.46
2018-08-04T15:05:41.553Z,30.42
2018-08-04T15:08:11.285Z,30.51
2018-08-04T15:10:41.072Z,31.65
2018-08-04T15:13:10.775Z,29.97
2018-08-04T15:15:40.545Z,31.65
2018-08-04T15:18:10.280Z,31.67
2018-08-04T15:20:39.996Z,31.81
2018-08-04T15:23:09.700Z,31.81
2018-08-04T15:25:39.727Z,32.81
2018-08-04T15:28:09.436Z,32.95
2018-08-04T15:30:39.171Z,33.04
2018-08-04T15:33:09.058Z,34.25
2018-08-04T15:35:39.230Z,34.23
2018-08-04T15:38:09.048Z,34.34
2018-08-04T15:40:38.848Z,34.90
2018-08-04T15:43:08.580Z,34.19
2018-08-04T15:45:38.372Z,33.84
2018-08-04T15:48:08.200Z,32.43
2018-08-04T15:50:37.969Z,32.91
2018-08-04T15:53:08.620Z,32.78
2018-08-04T15:55:38.341Z,33.78
2018-08-04T15:58:08.056Z,34.29
2018-08-04T16:00:37.776Z,35.08
2018-08-04T16:03:07.575Z,33.90
2018-08-04T16:05:37.347Z,33.79
2018-08-04T16:08:07.142Z,34.58
2018-08-04T16:10:36.845Z,35.50
2018-08-04T16:13:06.602Z,35.47
2018-08-04T16:15:36.622Z,35.45
2018-08-04T16:18:06.739Z,35.66
2018-08-04T16:20:37.004Z,35.79
2018-08-04T16:23:06.911Z,35.37
2018-08-04T16:25:36.683Z,36.46
2018-08-04T16:28:06.360Z,35.80
2018-08-04T16:30:36.101Z,35.52
2018-08-04T16:33:06.087Z,35.67
2018-08-04T16:35:35.812Z,36.02
2018-08-04T16:38:05.513Z,37.56
2018-08-04T16:40:36.020Z,36.52
2018-08-04T16:43:05.740Z,37.77
2018-08-04T16:45:35.813Z,37.64
2018-08-04T16:48:05.555Z,37.54
2018-08-04T16:50:35.596Z,36.92
2018-08-04T16:53:05.285Z,36.79
2018-08-04T16:55:35.101Z,36.87
2018-08-04T16:58:04.822Z,37.84
2018-08-04T17:00:34.818Z,38.25
2018-08-04T17:03:04.572Z,38.08
2018-08-04T17:05:34.284Z,38.21
2018-08-04T17:08:04.021Z,37.07
2018-08-04T17:10:33.771Z,38.16
2018-08-04T17:13:03.865Z,37.39
2018-08-04T17:15:33.663Z,37.47
2018-08-04T17:18:03.344Z,37.60
2018-08-04T17:20:33.073Z,36.79
2018-08-04T17:23:02.760Z,36.92
2018-08-04T17:25:32.553Z,37.02
2018-08-04T17:28:02.331Z,38.30
2018-08-04T17:30:32.261Z,37.88
2018-08-04T17:33:02.989Z,37.64
2018-08-04T17:35:32.702Z,39.12
2018-08-04T17:38:02.484Z,37.95
2018-08-04T17:40:32.239Z,37.59
2018-08-04T17:43:01.937Z,38.45
2018-08-04T17:45:31.704Z,38.37
2018-08-04T17:48:01.817Z,38.09
2018-08-04T17:50:32.081Z,39.08
2018-08-04T17:53:01.759Z,39.20
2018-08-04T17:55:31.881Z,38.63
2018-08-04T17:58:01.861Z,38.89
2018-08-04T18:00:32.349Z,39.02
2018-08-04T18:03:02.312Z,38.71
2018-08-04T18:05:32.040Z,38.79
2018-08-04T18:08:01.753Z,38.99
2018-08-04T18:10:31.529Z,39.26
2018-08-04T18:13:01.296Z,39.87
2018-08-04T18:15:31.705Z,40.38
2018-08-04T18:18:01.846Z,40.65
2018-08-04T18:20:31.627Z,40.12
2018-08-04T18:23:02.347Z,40.68
2018-08-04T18:25:32.136Z,41.60
2018-08-04T18:28:01.844Z,43.50
2018-08-04T18:30:31.561Z,42.28
2018-08-04T18:33:01.436Z,41.94
2018-08-04T18:35:31.132Z,42.42
2018-08-04T18:38:00.901Z,43.30
2018-08-04T18:40:30.685Z,43.21
2018-08-04T18:43:00.373Z,42.70
2018-08-04T18:45:30.135Z,42.58
2018-08-04T18:47:59.915Z,43.51
2018-08-04T18:50:29.627Z,43.18
2018-08-04T18:52:59.277Z,44.52
2018-08-04T18:55:28.960Z,44.59
2018-08-04T18:57:58.792Z,45.19
2018-08-04T19:00:28.792Z,44.47
2018-08-04T19:02:58.992Z,45.44
2018-08-04T19:05:28.684Z,45.85
2018-08-04T19:07:58.777Z,45.85
2018-08-04T19:10:28.460Z,46.42
2018-08-04T19:12:58.531Z,46.75
2018-08-04T19:15:28.269Z,46.93
2018-08-04T19:17:58.281Z,46.16
2018-08-04T19:20:28.007Z,46.43
2018-08-04T19:22:57.753Z,47.44
2018-08-04T19:25:27.458Z,46.99
2018-08-04T19:27:57.218Z,46.98
2018-08-04T19:30:26.970Z,46.43
2018-08-04T19:32:56.688Z,46.66
2018-08-04T19:35:26.438Z,47.67
2018-08-04T19:37:56.114Z,47.02
2018-08-04T19:40:25.801Z,47.58
2018-08-04T19:42:55.447Z,47.73
2018-08-04T19:45:25.144Z,46.63
2018-08-04T19:47:55.120Z,47.40
2018-08-04T19:50:25.274Z,47.51
2018-08-04T19:52:55.307Z,46.50
2018-08-04T19:55:25.354Z,47.39
2018-08-04T19:57:55.105Z,46.54
2018-08-04T20:00:25.084Z,47.64
2018-08-04T20:02:55.604Z,47.29
2018-08-04T20:05:25.289Z,48.04
2018-08-04T20:07:54.994Z,48.36
2018-08-04T20:10:25.263Z,47.99
2018-08-04T20:12:55.034Z,47.84
2018-08-04T20:15:24.767Z,48.58
2018-08-04T20:17:54.571Z,48.24
2018-08-04T20:20:24.969Z,49.14
2018-08-04T20:22:54.709Z,48.95
2018-08-04T20:25:24.394Z,49.38
2018-08-04T20:27:54.195Z,49.81
2018-08-04T20:30:24.287Z,48.94
2018-08-04T20:32:54.260Z,49.82
2018-08-04T20:35:24.033Z,49.87
2018-08-04T20:37:53.744Z,50.21
2018-08-04T20:40:23.779Z,49.53
2018-08-04T20:42:53.564Z,50.20
2018-08-04T20:45:23.291Z,49.87
2018-08-04T20:47:53.007Z,50.32
2018-08-04T20:50:22.829Z,50.07
2018-08-04T20:52:52.747Z,50.78
2018-08-04T20:55:22.803Z,51.25
2018-08-04T20:57:52.767Z,50.50
2018-08-04T21:00:22.481Z,51.61
2018-08-04T21:02:52.401Z,51.03
2018-08-04T21:05:22.188Z,51.86
2018-08-04T21:07:51.864Z,51.29
2018-08-04T21:10:21.867Z,52.09
2018-08-04T21:12:51.541Z,52.10
2018-08-04T21:15:21.257Z,52.41
2018-08-04T21:17:51.012Z,52.62
2018-08-04T21:20:21.004Z,53.70
2018-08-04T21:22:50.715Z,53.16
2018-08-04T21:25:20.433Z,53.08
2018-08-04T21:27:50.112Z,54.02
2018-08-04T21:30:19.807Z,54.27
2018-08-04T21:32:49.520Z,54.21
2018-08-04T21:35:19.231Z,53.35
2018-08-04T21:37:48.927Z,54.44
2018-08-04T21:40:18.648Z,55.21
2018-08-04T21:42:48.331Z,55.22
2018-08-04T21:45:18.092Z,54.07
2018-08-04T21:47:47.808Z,54.90
2018-08-04T21:50:17.490Z,54.68
2018-08-04T21:52:47.235Z,53.97
2018-08-04T21:55:16.920Z,53.97
2018-08-04T21:57:46.656Z,54.91
2018-08-04T22:00:16.381Z,54.92
2018-08-04T22:02:56.219Z,54.74
2018-08-04T22:05:26.396Z,55.62
2018-08-04T22:08:08.078Z,55.00
2018-08-04T22:10:37.841Z,55.93
2018-08-04T22:13:07.575Z,55.86
2018-08-04T22:15:37.339Z,55.40
2018-08-04T22:18:07.189Z,55.76
2018-08-04T22:20:36.928Z,55.93
2018-08-04T22:23:06.719Z,56.81
2018-08-04T22:25:36.401Z,56.61
2018-08-04T22:28:06.552Z,57.05
2018-08-04T22:30:36.285Z,56.51
2018-08-04T22:33:06.508Z,56.75
2018-08-04T22:35:36.328Z,56.26
2018-08-04T22:38:06.109Z,57.00
2018-08-04T22:40:35.840Z,56.85
2018-08-04T22:43:05.564Z,56.82
2018-08-04T22:46:07.414Z,57.27
2018-08-04T22:48:37.276Z,57.58
2018-08-04T22:51:07.039Z,56.96
2018-08-04T22:53:36.876Z,57.31
2018-08-04T22:56:06.681Z,57.52
2018-08-04T22:58:36.851Z,57.49
2018-08-04T23:01:06.687Z,57.44
2018-08-04T23:03:36.375Z,57.78
2018-08-04T23:06:06.364Z,57.75
2018-08-04T23:08:36.035Z,57.95
2018-08-04T23:11:05.753Z,58.13
2018-08-04T23:13:35.648Z,56.98
2018-08-04T23:16:05.761Z,57.26
2018-08-04T23:18:35.761Z,56.82
2018-08-04T23:21:05.464Z,56.38
2018-08-04T23:23:35.189Z,56.39
2018-08-04T23:26:04.863Z,57.17
2018-08-04T23:28:34.830Z,56.72
2018-08-04T23:31:04.578Z,57.84
2018-08-04T23:33:34.608Z,57.63
2018-08-04T23:36:04.388Z,58.55
2018-08-04T23:38:34.326Z,58.01
2018-08-04T23:41:04.031Z,57.76
2018-08-04T23:43:34.121Z,58.48
2018-08-04T23:46:03.847Z,58.11
2018-08-04T23:48:33.543Z,58.67
2018-08-04T23:51:03.277Z,58.23
2018-08-04T23:53:32.952Z,58.99
2018-08-04T23:56:02.627Z,58.27
2018-08-04T23:58:32.320Z,58.50
